首页
METAR-TAF:

METAR-TAF

机场 :

哥本哈根凯斯楚普机场

哥本哈根, 丹麦

纬度: 55-37N, 经度: 012-39E, 海拔: 5米

当前天气观测

该预报发布于37分钟前的01:20 UTC
风速11节,风向
温度 13°C
湿度 72%
气压 1027 hPa
能见度10公里或以上

METAR: EKCH 310120Z AUTO 35011KT 9999 NCD 13/08 Q1027 NOSIG

时间: 03:57 (01:57 UTC)

预报

该预报发布于2小时和7分钟前的23:50 UTC
预报有效从31日的 00点(UTC)到 31日的 24点(UTC)
风速10节,风向北转东北
能见度10公里或以上
少量云层高于4000英尺
成为
从 31日的 13点(UTC)到 31日的 16点(UTC)
风速8节,风向南转西南

TAF: EKCH 302350Z 3100/3124 03010KT 9999 FEW040 BECMG 3113/3116 21008KT

超过4000个机场的气象观测和天气预报(METAR&TAF报告)。

可查询的气象台以黄色和红色小点在地图上表示。

将鼠标移到小点上方,可查看气象台名称。

然后点击查看天气观测和预报。

如需切换地图:点击带黑十字的绿色按钮放大地图;点击带横线的绿色按钮缩小地图;或者点击绿色箭头查看邻近地区的地图。


METAR-TAF: